Aeroporto :
LOGIN :

Iscrizione | Disclaimer

   EN    FR    IT 

 










Sommario :    VFR   VFR Marginale   IFR   IFR Intensivo   IFR Molto Intensivo
Visibilità : 
Base nubi : 
>= 8 km
>= 3000ft
5 / 8 km
1000 / 3000 ft
1500m / 5 km
500 / 1000 ft
800 / 1500m
200 / 500 ft
< 800m
< 200 ft
Simboli :   Temporali  Nebbia  Neve Forte  Precipitazioni Forti  Vento > 20 kt
SIGMETs :   Varie  Temporali  Ghiacco  Turbolenza  Onda orograficha  Ceneri Vulcaniche






- Altitudine del aeroporto : 1496 ft
- Codice IATA : SBZ


LRSB - Sibiu

ULTIMO METAR :
  • 122300Z 14014KT CAVOK 18/03 Q1011

METARs OBSOLETI :
  • 122230Z 12014KT CAVOK 18/04 Q1011
  • 122200Z 13015KT CAVOK 18/04 Q1012
  • 122130Z 14019KT CAVOK 18/05 Q1012
  • 122100Z 14018KT CAVOK 18/06 Q1013
  • 122030Z 15015G30KT CAVOK 17/07 Q1013

TAF TAF LRSB
Valido dal 12 a 18 ore il 13 a 18 ore UTC


121700Z 1218/1318 15012KT CAVOK
PROB30
TEMPO 1218/1221 15020G30KT
TEMPO 1309/1312 13020G30KT



MetMap, La meteo Aeronautica in un colpo d'occhio ! - Copyright ORBIFLY Dicembre 2007 - Disclaimer

ORBIFLY MET'MAP TEAM :

Programmazione e sviluppo : Alexandra Zaïnal
Concezione e sviluppo : Baudouin d'Aumeries
Co-Programmazione e sviluppo : Marc-Olivier Méhu
Supporto tecnico e logistico : Manuel Goepfert
Aiuto per la traduzione : Arnaldo La Scala

Contatto : metmap@orbifly.com




FONTI E CREDITI :

   NOAA